createdAt,value
2023-06-22T00:00:00.576Z,73.78
2023-06-22T00:02:32.657Z,73.91
2023-06-22T00:05:06.921Z,74.08
2023-06-22T00:07:35.801Z,73.83
2023-06-22T00:10:10.834Z,73.92
2023-06-22T00:12:40.333Z,74.10
2023-06-22T00:15:11.319Z,73.98
2023-06-22T00:17:50.529Z,74.05
2023-06-22T00:20:20.552Z,73.73
2023-06-22T00:22:49.939Z,74.06
2023-06-22T00:25:18.850Z,74.13
2023-06-22T00:27:48.402Z,74.49
2023-06-22T00:30:20.526Z,74.29
2023-06-22T00:32:53.361Z,74.40
2023-06-22T00:35:22.460Z,74.39
2023-06-22T00:38:01.040Z,74.29
2023-06-22T00:40:33.419Z,74.78
2023-06-22T00:43:02.550Z,74.44
2023-06-22T00:45:41.026Z,74.58
2023-06-22T00:48:11.010Z,74.69
2023-06-22T00:50:42.241Z,74.77
2023-06-22T00:53:13.622Z,74.75
2023-06-22T00:55:48.821Z,74.80
2023-06-22T00:58:22.633Z,74.51
2023-06-22T01:00:52.484Z,74.61
2023-06-22T01:03:26.935Z,74.76
2023-06-22T01:06:03.618Z,74.41
2023-06-22T01:08:45.631Z,74.75
2023-06-22T01:11:22.574Z,74.97
2023-06-22T01:14:01.514Z,74.77
2023-06-22T01:16:39.112Z,74.76
2023-06-22T01:19:31.398Z,75.00
2023-06-22T01:22:02.249Z,74.77
2023-06-22T01:24:43.063Z,74.52
2023-06-22T01:27:26.724Z,74.97
2023-06-22T01:30:00.925Z,75.21
2023-06-22T01:32:33.446Z,75.17
2023-06-22T01:35:08.954Z,75.34
2023-06-22T01:37:39.252Z,75.08
2023-06-22T01:40:10.234Z,75.30
2023-06-22T01:42:43.826Z,75.05
2023-06-22T01:45:13.809Z,75.36
2023-06-22T01:47:43.027Z,74.99
2023-06-22T01:50:13.405Z,75.13
2023-06-22T01:52:45.322Z,75.34
2023-06-22T01:55:14.551Z,75.37
2023-06-22T01:57:43.784Z,75.62
2023-06-22T02:00:19.765Z,75.37
2023-06-22T02:02:55.084Z,75.47
2023-06-22T02:05:29.528Z,75.43
2023-06-22T02:08:04.758Z,75.62
2023-06-22T02:10:35.511Z,75.93
2023-06-22T02:13:19.968Z,75.49
2023-06-22T02:15:49.676Z,75.67
2023-06-22T02:18:29.752Z,76.00
2023-06-22T02:20:59.978Z,75.89
2023-06-22T02:23:29.117Z,75.89
2023-06-22T02:25:58.248Z,76.01
2023-06-22T02:28:30.144Z,76.18
2023-06-22T02:31:00.790Z,76.09
2023-06-22T02:33:30.234Z,76.14
2023-06-22T02:35:59.481Z,76.31
2023-06-22T02:38:35.131Z,76.75
2023-06-22T02:41:11.349Z,76.49
2023-06-22T02:43:41.431Z,76.39
2023-06-22T02:46:10.411Z,76.51
2023-06-22T02:48:40.878Z,76.31
2023-06-22T02:51:13.382Z,76.53
2023-06-22T02:53:45.123Z,76.70
2023-06-22T02:56:18.318Z,76.66
2023-06-22T02:58:47.578Z,76.61
2023-06-22T03:01:16.479Z,76.75
2023-06-22T03:03:48.369Z,76.80
2023-06-22T03:06:24.486Z,76.73
2023-06-22T03:08:59.839Z,76.85
2023-06-22T03:11:35.048Z,77.09
2023-06-22T03:14:08.454Z,76.94
2023-06-22T03:16:43.283Z,77.33
2023-06-22T03:19:12.641Z,77.13
2023-06-22T03:21:41.567Z,77.40
2023-06-22T03:24:10.476Z,77.25
2023-06-22T03:26:40.703Z,77.31
2023-06-22T03:29:16.945Z,77.50
2023-06-22T03:31:48.809Z,77.12
2023-06-22T03:34:19.072Z,77.15
2023-06-22T03:36:50.887Z,77.28
2023-06-22T03:39:20.958Z,77.55
2023-06-22T03:41:52.826Z,77.36
2023-06-22T03:44:22.900Z,77.42
2023-06-22T03:47:13.108Z,77.29
2023-06-22T03:49:42.865Z,77.65
2023-06-22T03:52:12.448Z,77.68
2023-06-22T03:54:41.326Z,77.54
2023-06-22T03:57:21.232Z,77.44
2023-06-22T03:59:57.846Z,77.55
2023-06-22T04:02:29.999Z,77.23
2023-06-22T04:05:04.633Z,77.76
2023-06-22T04:07:38.783Z,77.56
2023-06-22T04:10:13.584Z,77.78
2023-06-22T04:12:45.914Z,77.84
2023-06-22T04:15:15.473Z,77.78
2023-06-22T04:17:52.524Z,77.77
2023-06-22T04:20:28.757Z,77.67
2023-06-22T04:22:58.800Z,77.35
2023-06-22T04:25:28.573Z,77.25
2023-06-22T04:27:59.751Z,77.43
2023-06-22T04:30:29.733Z,77.49
2023-06-22T04:33:04.428Z,77.41
2023-06-22T04:35:33.317Z,77.11
2023-06-22T04:38:04.234Z,77.43
2023-06-22T04:40:34.220Z,77.06
2023-06-22T04:43:07.305Z,77.16
2023-06-22T04:45:39.681Z,77.52
2023-06-22T04:48:10.327Z,77.53
2023-06-22T04:50:42.053Z,77.53
2023-06-22T04:53:13.811Z,77.15
2023-06-22T04:55:46.327Z,77.18
2023-06-22T04:58:15.304Z,76.89
2023-06-22T05:00:52.690Z,77.43
2023-06-22T05:03:22.018Z,76.98
2023-06-22T05:05:51.567Z,76.89
2023-06-22T05:08:22.109Z,76.84
2023-06-22T05:11:05.198Z,76.89
2023-06-22T05:13:35.388Z,77.21
2023-06-22T05:16:24.950Z,77.28
2023-06-22T05:18:55.895Z,76.71
2023-06-22T05:21:33.876Z,76.83
2023-06-22T05:24:05.968Z,76.52
2023-06-22T05:26:35.890Z,76.45
2023-06-22T05:29:05.048Z,76.55
2023-06-22T05:31:48.247Z,76.46
2023-06-22T05:34:17.344Z,76.76
2023-06-22T05:36:46.311Z,76.24
2023-06-22T05:39:16.046Z,76.71
2023-06-22T05:41:46.526Z,76.55
2023-06-22T05:44:17.361Z,76.24
2023-06-22T05:46:47.499Z,76.46
2023-06-22T05:49:16.955Z,76.00
2023-06-22T05:51:45.997Z,76.27
2023-06-22T05:54:18.817Z,75.88
2023-06-22T05:56:47.952Z,76.51
2023-06-22T05:59:17.186Z,75.84
2023-06-22T06:01:51.040Z,76.08
2023-06-22T06:04:20.912Z,75.69
2023-06-22T06:06:50.308Z,75.79
2023-06-22T06:09:21.832Z,75.99
2023-06-22T06:11:51.195Z,75.56
2023-06-22T06:14:20.856Z,75.58
2023-06-22T06:16:50.460Z,75.66
2023-06-22T06:19:19.331Z,75.66
2023-06-22T06:21:48.444Z,75.39
2023-06-22T06:24:17.542Z,75.51
2023-06-22T06:26:46.616Z,75.25
2023-06-22T06:29:17.090Z,75.11
2023-06-22T06:31:46.246Z,74.95
2023-06-22T06:34:15.538Z,74.60
2023-06-22T06:36:45.183Z,74.69
2023-06-22T06:39:26.003Z,74.14
2023-06-22T06:41:54.937Z,73.83
2023-06-22T06:44:26.511Z,73.91
2023-06-22T06:46:59.001Z,73.84
2023-06-22T06:49:27.955Z,73.55
2023-06-22T06:51:56.844Z,73.41
2023-06-22T06:54:25.856Z,73.08
2023-06-22T06:56:54.914Z,72.85
2023-06-22T06:59:23.879Z,72.23
2023-06-22T07:01:53.046Z,72.05
2023-06-22T07:04:22.349Z,71.91
2023-06-22T07:06:51.315Z,71.56
2023-06-22T07:09:20.341Z,71.35
2023-06-22T07:11:49.341Z,70.95
2023-06-22T07:14:21.307Z,70.03
2023-06-22T07:16:50.244Z,69.09
2023-06-22T07:19:32.212Z,69.09
2023-06-22T07:22:01.595Z,68.94
2023-06-22T07:24:30.653Z,68.69
2023-06-22T07:27:00.182Z,68.39
2023-06-22T07:29:30.432Z,68.36
2023-06-22T07:32:01.367Z,68.12
2023-06-22T07:34:31.332Z,67.77
2023-06-22T07:37:00.574Z,67.94
2023-06-22T07:39:32.397Z,67.12
2023-06-22T07:42:01.536Z,67.32
2023-06-22T07:44:30.657Z,67.02
2023-06-22T07:46:59.733Z,66.82
2023-06-22T07:49:30.455Z,66.39
2023-06-22T07:51:59.380Z,66.86
2023-06-22T07:54:31.604Z,66.58
2023-06-22T07:57:00.797Z,65.95
2023-06-22T07:59:31.980Z,65.80
2023-06-22T08:02:01.361Z,66.05
2023-06-22T08:04:31.660Z,66.02
2023-06-22T08:07:01.976Z,65.69
2023-06-22T08:09:32.148Z,65.29
2023-06-22T08:12:03.141Z,65.03
2023-06-22T08:14:33.298Z,64.71
2023-06-22T08:17:02.383Z,64.93
2023-06-22T08:19:32.069Z,64.79
2023-06-22T08:22:01.387Z,64.88
2023-06-22T08:24:32.412Z,64.36
2023-06-22T08:27:01.648Z,64.52
2023-06-22T08:29:30.709Z,64.54
2023-06-22T08:32:00.877Z,64.28
2023-06-22T08:34:29.928Z,63.54
2023-06-22T08:37:00.888Z,63.56
2023-06-22T08:39:36.062Z,63.38
2023-06-22T08:42:09.517Z,62.95
2023-06-22T08:44:41.247Z,62.90
2023-06-22T08:47:10.234Z,62.42
2023-06-22T08:49:50.797Z,62.25
2023-06-22T08:52:24.016Z,61.67
2023-06-22T08:54:53.897Z,61.32
2023-06-22T08:57:25.366Z,61.06
2023-06-22T08:59:54.409Z,60.18
2023-06-22T09:02:23.581Z,60.07
2023-06-22T09:04:56.512Z,59.77
2023-06-22T09:07:26.478Z,59.17
2023-06-22T09:09:57.105Z,58.69
2023-06-22T09:12:27.931Z,58.33
2023-06-22T09:14:59.533Z,57.95
2023-06-22T09:17:30.355Z,57.73
2023-06-22T09:19:59.602Z,56.59
2023-06-22T09:22:29.914Z,56.34
2023-06-22T09:25:00.540Z,55.41
2023-06-22T09:27:29.619Z,55.54
2023-06-22T09:29:59.374Z,54.86
2023-06-22T09:32:28.641Z,55.01
2023-06-22T09:34:57.959Z,54.10
2023-06-22T09:37:29.911Z,53.86
2023-06-22T09:39:59.054Z,54.15
2023-06-22T09:42:28.376Z,53.27
2023-06-22T09:44:57.940Z,52.34
2023-06-22T09:47:28.965Z,52.41
2023-06-22T09:50:01.227Z,52.12
2023-06-22T09:52:46.622Z,51.51
2023-06-22T09:55:26.695Z,50.94
2023-06-22T09:57:56.367Z,50.70
2023-06-22T10:00:28.127Z,50.37
2023-06-22T10:03:00.865Z,50.14
2023-06-22T10:05:32.673Z,50.11
2023-06-22T10:08:05.262Z,49.92
2023-06-22T10:10:35.152Z,49.09
2023-06-22T10:13:19.819Z,48.84
2023-06-22T10:15:51.984Z,48.67
2023-06-22T10:18:21.354Z,48.36
2023-06-22T10:20:53.769Z,48.50
2023-06-22T10:23:25.415Z,48.16
2023-06-22T10:25:57.690Z,47.83
2023-06-22T10:28:26.748Z,47.46
2023-06-22T10:30:55.854Z,47.16
2023-06-22T10:33:25.001Z,47.03
2023-06-22T10:35:53.982Z,46.95
2023-06-22T10:38:22.856Z,47.18
2023-06-22T10:40:52.090Z,46.75
2023-06-22T10:43:22.684Z,46.29
2023-06-22T10:45:54.229Z,46.00
2023-06-22T10:48:23.162Z,46.18
2023-06-22T10:50:53.794Z,45.60
2023-06-22T10:53:23.706Z,45.57
2023-06-22T10:55:56.808Z,45.35
2023-06-22T10:58:27.307Z,45.17
2023-06-22T11:00:56.419Z,45.28
2023-06-22T11:03:27.712Z,45.03
2023-06-22T11:05:57.036Z,44.88
2023-06-22T11:08:26.101Z,44.78
2023-06-22T11:10:55.047Z,44.83
2023-06-22T11:13:24.111Z,44.00
2023-06-22T11:15:55.012Z,43.75
2023-06-22T11:18:24.250Z,43.53
2023-06-22T11:20:54.312Z,43.26
2023-06-22T11:23:26.895Z,43.04
2023-06-22T11:25:56.069Z,42.93
2023-06-22T11:28:25.308Z,43.14
2023-06-22T11:30:56.207Z,42.55
2023-06-22T11:33:26.209Z,42.50
2023-06-22T11:35:58.143Z,42.25
2023-06-22T11:38:27.232Z,42.39
2023-06-22T11:40:56.834Z,42.54
2023-06-22T11:43:26.104Z,42.33
2023-06-22T11:45:56.720Z,42.40
2023-06-22T11:48:26.382Z,41.87
2023-06-22T11:50:57.258Z,41.99
2023-06-22T11:53:28.364Z,42.17
2023-06-22T11:55:58.997Z,41.76
2023-06-22T11:58:28.230Z,41.69
2023-06-22T12:00:57.714Z,41.20
2023-06-22T12:03:29.584Z,40.96
2023-06-22T12:05:59.433Z,40.85
2023-06-22T12:08:28.617Z,41.00
2023-06-22T12:10:57.571Z,41.08
2023-06-22T12:13:26.796Z,40.65
2023-06-22T12:15:55.658Z,40.60
2023-06-22T12:18:28.217Z,40.65
2023-06-22T12:20:57.199Z,40.38
2023-06-22T12:23:26.232Z,40.46
2023-06-22T12:25:56.211Z,40.13
2023-06-22T12:28:25.066Z,40.14
2023-06-22T12:30:54.117Z,40.37
2023-06-22T12:33:23.109Z,40.23
2023-06-22T12:35:52.297Z,40.27
2023-06-22T12:38:27.279Z,39.68
2023-06-22T12:40:56.614Z,39.48
2023-06-22T12:43:25.857Z,39.09
2023-06-22T12:45:55.985Z,39.36
2023-06-22T12:48:28.460Z,38.94
2023-06-22T12:50:58.322Z,39.18
2023-06-22T12:53:28.553Z,38.79
2023-06-22T12:55:57.663Z,39.00
2023-06-22T12:58:29.356Z,38.98
2023-06-22T13:00:58.785Z,38.74
2023-06-22T13:03:30.377Z,38.68
2023-06-22T13:06:00.351Z,38.68
2023-06-22T13:09:10.671Z,38.64
2023-06-22T13:11:26.343Z,38.26
2023-06-22T13:13:57.044Z,38.29
2023-06-22T13:16:26.257Z,38.25
2023-06-22T13:18:55.190Z,37.99
2023-06-22T13:21:24.187Z,37.96
2023-06-22T13:23:53.192Z,38.16
2023-06-22T13:26:22.968Z,38.26
2023-06-22T13:28:51.902Z,37.70
2023-06-22T13:31:20.854Z,37.71
2023-06-22T13:33:52.758Z,37.77
2023-06-22T13:36:24.952Z,37.84
2023-06-22T13:38:54.077Z,38.12
2023-06-22T13:41:22.998Z,37.99
2023-06-22T13:43:53.224Z,37.69
2023-06-22T13:46:26.497Z,37.52
2023-06-22T13:48:57.065Z,37.88
2023-06-22T13:51:31.746Z,37.64
2023-06-22T13:54:03.965Z,37.14
2023-06-22T13:56:41.466Z,37.17
2023-06-22T13:59:11.166Z,37.01
2023-06-22T14:01:56.262Z,36.91
2023-06-22T14:04:26.270Z,37.07
2023-06-22T14:06:58.927Z,36.99
2023-06-22T14:09:27.918Z,37.17
2023-06-22T14:11:57.237Z,36.90
2023-06-22T14:14:27.476Z,36.64
2023-06-22T14:16:56.514Z,36.61
2023-06-22T14:19:26.278Z,36.67
2023-06-22T14:21:55.638Z,36.63
2023-06-22T14:24:31.350Z,36.48
2023-06-22T14:27:03.201Z,36.78
2023-06-22T14:29:32.482Z,36.90
2023-06-22T14:32:01.714Z,37.02
2023-06-22T14:34:32.856Z,36.89
2023-06-22T14:37:04.815Z,37.33
2023-06-22T14:39:36.009Z,36.94
2023-06-22T14:42:08.321Z,37.45
2023-06-22T14:44:40.000Z,37.04
2023-06-22T14:47:09.672Z,37.01
2023-06-22T14:49:41.993Z,37.24
2023-06-22T14:52:10.858Z,36.99
2023-06-22T14:54:42.304Z,37.23
2023-06-22T14:57:11.651Z,37.00
2023-06-22T15:02:22.722Z,37.40
2023-06-22T15:04:54.278Z,37.15
2023-06-22T15:07:23.588Z,37.16
2023-06-22T15:09:52.617Z,37.49
2023-06-22T15:12:21.720Z,37.21
2023-06-22T15:14:55.846Z,37.32
2023-06-22T15:17:31.154Z,37.57
2023-06-22T15:20:00.874Z,37.73
2023-06-22T15:22:31.792Z,37.67
2023-06-22T15:25:04.338Z,37.81
2023-06-22T15:27:39.576Z,37.86
2023-06-22T15:30:10.328Z,37.96
2023-06-22T15:32:46.744Z,37.99
2023-06-22T15:35:21.153Z,38.14
2023-06-22T15:37:52.422Z,38.21
2023-06-22T15:40:21.529Z,38.55
2023-06-22T15:42:56.241Z,38.59
2023-06-22T15:45:25.879Z,38.49
2023-06-22T15:47:54.952Z,38.66
2023-06-22T15:50:23.981Z,38.34
2023-06-22T15:52:53.024Z,38.53
2023-06-22T15:55:22.256Z,38.45
2023-06-22T15:57:51.478Z,38.61
2023-06-22T16:00:21.658Z,38.06
2023-06-22T16:02:53.345Z,38.79
2023-06-22T16:05:23.421Z,38.77
2023-06-22T16:07:52.621Z,38.86
2023-06-22T16:10:21.800Z,38.55
2023-06-22T16:12:53.229Z,38.91
2023-06-22T16:15:23.445Z,38.85
2023-06-22T16:17:52.462Z,38.94
2023-06-22T16:20:22.089Z,39.05
2023-06-22T16:22:53.340Z,39.08
2023-06-22T16:25:22.956Z,39.03
2023-06-22T16:27:52.152Z,39.14
2023-06-22T16:30:21.646Z,39.31
2023-06-22T16:32:55.379Z,39.46
2023-06-22T16:35:24.667Z,39.42
2023-06-22T16:37:57.468Z,39.41
2023-06-22T16:40:30.001Z,39.71
2023-06-22T16:43:01.884Z,39.66
2023-06-22T16:45:33.208Z,39.87
2023-06-22T16:48:02.407Z,40.00
2023-06-22T16:50:36.065Z,39.99
2023-06-22T16:53:09.260Z,40.07
2023-06-22T16:55:43.122Z,40.34
2023-06-22T16:58:16.249Z,40.51
2023-06-22T17:00:46.549Z,40.37
2023-06-22T17:03:24.291Z,40.11
2023-06-22T17:06:01.364Z,40.31
2023-06-22T17:08:34.942Z,40.62
2023-06-22T17:11:04.102Z,40.36
2023-06-22T17:13:35.714Z,40.59
2023-06-22T17:16:06.537Z,40.88
2023-06-22T17:18:37.344Z,40.83
2023-06-22T17:21:24.168Z,41.27
2023-06-22T17:24:07.616Z,41.31
2023-06-22T17:26:45.882Z,41.29
2023-06-22T17:29:15.409Z,41.50
2023-06-22T17:31:47.702Z,41.94
2023-06-22T17:34:19.867Z,42.16
2023-06-22T17:36:50.039Z,41.80
2023-06-22T17:39:21.867Z,41.86
2023-06-22T17:41:58.748Z,42.27
2023-06-22T17:44:33.552Z,42.46
2023-06-22T17:47:06.024Z,42.43
2023-06-22T17:49:35.439Z,42.55
2023-06-22T17:52:08.707Z,42.36
2023-06-22T17:54:51.529Z,42.66
2023-06-22T17:57:28.996Z,42.41
2023-06-22T17:59:58.546Z,42.56
2023-06-22T18:02:28.605Z,42.82
2023-06-22T18:05:05.766Z,43.04
2023-06-22T18:07:37.311Z,42.98
2023-06-22T18:10:13.197Z,43.20
2023-06-22T18:12:44.034Z,43.20
2023-06-22T18:15:15.589Z,43.49
2023-06-22T18:17:44.890Z,43.76
2023-06-22T18:20:15.431Z,43.69
2023-06-22T18:22:45.100Z,44.07
2023-06-22T18:25:17.898Z,43.82
2023-06-22T18:27:51.226Z,44.42
2023-06-22T18:30:21.501Z,44.53
2023-06-22T18:32:51.578Z,44.92
2023-06-22T18:35:21.035Z,45.12
2023-06-22T18:37:51.880Z,45.49
2023-06-22T18:40:20.987Z,45.21
2023-06-22T18:42:50.042Z,45.73
2023-06-22T18:45:28.675Z,45.68
2023-06-22T18:48:08.339Z,46.16
2023-06-22T18:50:43.285Z,46.17
2023-06-22T18:53:19.003Z,47.00
2023-06-22T18:55:55.644Z,47.05
2023-06-22T18:58:26.655Z,46.79
2023-06-22T19:01:19.534Z,47.27
2023-06-22T19:03:52.696Z,47.70
2023-06-22T19:06:59.633Z,47.93
2023-06-22T19:09:37.543Z,47.79
2023-06-22T19:12:26.163Z,48.21
2023-06-22T19:15:20.288Z,48.33
2023-06-22T19:17:49.988Z,47.99
2023-06-22T19:20:24.113Z,48.73
2023-06-22T19:23:01.057Z,48.51
2023-06-22T19:25:34.400Z,48.94
2023-06-22T19:28:11.691Z,49.35
2023-06-22T19:30:44.691Z,49.53
2023-06-22T19:33:16.273Z,49.80
2023-06-22T19:35:45.434Z,50.31
2023-06-22T19:38:18.166Z,50.04
2023-06-22T19:40:47.933Z,50.31
2023-06-22T19:43:17.845Z,50.54
2023-06-22T19:45:52.466Z,50.84
2023-06-22T19:48:31.702Z,50.56
2023-06-22T19:51:06.820Z,51.09
2023-06-22T19:53:41.477Z,51.23
2023-06-22T19:56:10.716Z,51.53
2023-06-22T19:58:42.006Z,51.17
2023-06-22T20:01:11.162Z,51.23
2023-06-22T20:03:47.519Z,51.78
2023-06-22T20:06:21.624Z,52.07
2023-06-22T20:08:58.831Z,52.01
2023-06-22T20:11:31.692Z,51.79
2023-06-22T20:14:01.769Z,51.79
2023-06-22T20:16:48.291Z,52.31
2023-06-22T20:19:17.200Z,52.61
2023-06-22T20:21:47.446Z,52.18
2023-06-22T20:24:19.728Z,52.62
2023-06-22T20:26:49.076Z,52.80
2023-06-22T20:29:32.079Z,52.73
2023-06-22T20:32:11.044Z,52.78
2023-06-22T20:34:45.354Z,53.20
2023-06-22T20:37:15.574Z,53.20
2023-06-22T20:39:48.999Z,52.98
2023-06-22T20:42:19.216Z,53.17
2023-06-22T20:44:56.015Z,53.38
2023-06-22T20:47:25.095Z,53.53
2023-06-22T20:50:00.201Z,53.68
2023-06-22T20:52:29.901Z,54.26
2023-06-22T20:55:03.416Z,53.91
2023-06-22T20:57:34.908Z,54.16
2023-06-22T21:00:10.432Z,54.16
2023-06-22T21:03:02.311Z,54.25
2023-06-22T21:05:32.664Z,54.24
2023-06-22T21:08:02.319Z,54.80
2023-06-22T21:10:33.106Z,54.72
2023-06-22T21:13:02.625Z,55.29
2023-06-22T21:15:32.083Z,55.10
2023-06-22T21:18:04.796Z,55.68
2023-06-22T21:20:37.574Z,55.20
2023-06-22T21:23:07.415Z,55.51
2023-06-22T21:25:42.283Z,55.60
2023-06-22T21:28:11.190Z,55.80
2023-06-22T21:30:42.481Z,56.06
2023-06-22T21:33:11.407Z,56.18
2023-06-22T21:35:42.580Z,56.04
2023-06-22T21:38:20.268Z,56.48
2023-06-22T21:40:52.778Z,56.62
2023-06-22T21:43:27.486Z,56.69
2023-06-22T21:45:59.537Z,56.81
2023-06-22T21:48:29.582Z,56.90
2023-06-22T21:51:00.765Z,56.91
2023-06-22T21:53:32.833Z,57.53
2023-06-22T21:56:11.631Z,57.30
2023-06-22T21:58:41.962Z,57.47
2023-06-22T22:01:11.047Z,57.50
2023-06-22T22:03:43.730Z,57.81
2023-06-22T22:06:12.716Z,57.85
2023-06-22T22:08:43.211Z,58.11
2023-06-22T22:11:14.623Z,58.17
2023-06-22T22:13:43.678Z,58.34
2023-06-22T22:16:12.536Z,58.36
2023-06-22T22:18:47.469Z,58.40
2023-06-22T22:21:21.839Z,58.50
2023-06-22T22:23:52.294Z,58.57
2023-06-22T22:26:23.200Z,58.56
2023-06-22T22:28:57.015Z,58.80
2023-06-22T22:31:39.924Z,58.90
2023-06-22T22:34:10.700Z,58.79
2023-06-22T22:36:43.240Z,59.17
2023-06-22T22:39:29.968Z,59.31
2023-06-22T22:42:02.535Z,59.28
2023-06-22T22:44:32.223Z,59.10
2023-06-22T22:47:01.770Z,59.11
2023-06-22T22:49:32.092Z,59.42
2023-06-22T22:52:02.895Z,59.34
2023-06-22T22:54:31.916Z,59.29
2023-06-22T22:57:04.495Z,59.52
2023-06-22T22:59:33.305Z,59.68
2023-06-22T23:02:04.557Z,59.79
2023-06-22T23:04:36.817Z,59.87
2023-06-22T23:07:06.984Z,59.69
2023-06-22T23:09:36.032Z,59.83
2023-06-22T23:12:08.193Z,59.59
2023-06-22T23:14:38.187Z,59.59
2023-06-22T23:17:09.170Z,59.99
2023-06-22T23:19:40.574Z,59.80
2023-06-22T23:22:11.046Z,59.82
2023-06-22T23:24:48.131Z,59.74
2023-06-22T23:27:17.282Z,59.99
2023-06-22T23:29:47.317Z,60.03
2023-06-22T23:32:16.334Z,59.80
2023-06-22T23:34:45.340Z,59.97
2023-06-22T23:37:15.845Z,59.79
2023-06-22T23:39:47.063Z,60.28
2023-06-22T23:42:16.304Z,60.20
2023-06-22T23:44:46.346Z,60.54
2023-06-22T23:47:22.985Z,60.01
2023-06-22T23:49:52.044Z,60.15
2023-06-22T23:52:22.290Z,60.42
2023-06-22T23:54:51.787Z,60.08
2023-06-22T23:57:25.935Z,60.25
2023-06-22T23:59:55.391Z,60.36
